createdAt,value
2022-08-05T00:01:01.060Z,1.80
2022-08-05T00:06:29.284Z,2.58
2022-08-05T00:11:35.188Z,1.83
2022-08-05T00:16:53.389Z,2.08
2022-08-05T00:21:55.321Z,2.67
2022-08-05T00:26:56.777Z,2.42
2022-08-05T00:32:12.551Z,2.63
2022-08-05T00:37:16.320Z,2.55
2022-08-05T00:42:33.334Z,2.85
2022-08-05T00:47:56.834Z,2.92
2022-08-05T00:52:56.518Z,2.80
2022-08-05T00:57:59.347Z,2.90
2022-08-05T01:08:30.789Z,2.35
2022-08-05T01:13:57.997Z,2.65
2022-08-05T01:18:56.544Z,2.17
2022-08-05T01:24:16.850Z,2.33
2022-08-05T01:29:44.362Z,2.00
2022-08-05T01:34:55.993Z,1.77
2022-08-05T01:39:59.017Z,1.92
2022-08-05T01:45:02.436Z,2.05
2022-08-05T01:50:07.507Z,1.92
2022-08-05T01:55:20.227Z,2.50
2022-08-05T02:00:30.594Z,1.88
2022-08-05T02:05:36.680Z,2.20
2022-08-05T02:10:51.126Z,2.13
2022-08-05T02:16:01.827Z,2.38
2022-08-05T02:21:14.738Z,1.98
2022-08-05T02:26:23.180Z,2.20
2022-08-05T02:31:34.653Z,2.13
2022-08-05T02:36:45.306Z,2.55
2022-08-05T02:42:00.993Z,2.30
2022-08-05T02:47:05.660Z,2.40
2022-08-05T02:52:11.574Z,2.22
2022-08-05T02:58:12.236Z,2.65
2022-08-05T03:02:40.830Z,2.90
2022-08-05T03:08:00.705Z,2.85
2022-08-05T03:13:17.754Z,2.33
2022-08-05T03:18:19.247Z,2.33
2022-08-05T03:23:33.046Z,2.50
2022-08-05T03:28:36.533Z,2.97
2022-08-05T03:33:51.310Z,3.40
2022-08-05T03:38:54.760Z,2.70
2022-08-05T03:44:08.074Z,2.25
2022-08-05T03:49:12.833Z,2.92
2022-08-05T03:55:50.559Z,3.65
2022-08-05T03:59:54.749Z,3.83
2022-08-05T04:05:02.254Z,4.15
2022-08-05T04:10:03.840Z,3.83
2022-08-05T04:15:06.608Z,3.47
2022-08-05T04:20:19.876Z,2.90
2022-08-05T04:25:38.527Z,3.05
2022-08-05T04:30:42.973Z,3.28
2022-08-05T04:36:16.177Z,3.90
2022-08-05T04:41:05.893Z,3.53
2022-08-05T04:46:08.868Z,4.03
2022-08-05T04:51:12.548Z,3.63
2022-08-05T04:56:34.964Z,4.07
2022-08-05T05:02:07.155Z,4.13
2022-08-05T05:06:57.831Z,4.30
2022-08-05T05:12:02.938Z,4.18
2022-08-05T05:17:07.554Z,4.35
2022-08-05T05:22:24.152Z,4.20
2022-08-05T05:27:45.349Z,5.03
2022-08-05T05:32:47.429Z,4.90
2022-08-05T05:38:00.213Z,4.78
2022-08-05T05:43:02.778Z,6.28
2022-08-05T05:48:08.101Z,5.80
2022-08-05T05:53:21.385Z,7.13
2022-08-05T05:58:31.775Z,6.38
2022-08-05T06:03:53.720Z,5.95
2022-08-05T06:08:55.177Z,5.90
2022-08-05T06:13:56.971Z,5.18
2022-08-05T06:19:00.787Z,5.35
2022-08-05T06:24:03.570Z,5.60
2022-08-05T06:29:23.593Z,4.85
2022-08-05T06:34:26.423Z,4.60
2022-08-05T06:44:32.697Z,7.20
2022-08-05T06:50:00.522Z,4.82
2022-08-05T06:54:55.312Z,3.80
2022-08-05T06:59:58.344Z,3.75
2022-08-05T07:04:59.734Z,5.13
2022-08-05T07:10:03.564Z,5.70
2022-08-05T07:15:34.640Z,5.65
2022-08-05T07:20:45.691Z,5.50
2022-08-05T07:25:54.728Z,4.88
2022-08-05T07:30:57.177Z,6.15
2022-08-05T07:36:05.664Z,5.55
2022-08-05T07:42:13.762Z,6.25
2022-08-05T07:46:48.166Z,6.50
2022-08-05T07:51:54.442Z,6.43
2022-08-05T07:57:01.414Z,5.32
2022-08-05T08:02:17.938Z,5.15
2022-08-05T08:07:22.834Z,4.22
2022-08-05T08:12:35.331Z,4.43
2022-08-05T08:17:43.999Z,3.33
2022-08-05T08:22:57.075Z,2.90
2022-08-05T08:27:59.600Z,2.78
2022-08-05T08:33:04.666Z,3.13
2022-08-05T08:38:11.726Z,2.97
2022-08-05T08:45:01.586Z,2.55
2022-08-05T08:49:07.764Z,2.67
2022-08-05T08:54:07.061Z,2.50
2022-08-05T08:59:14.906Z,2.70
2022-08-05T09:04:21.636Z,2.03
2022-08-05T09:09:35.505Z,2.45
2022-08-05T09:14:56.488Z,2.05
2022-08-05T09:20:02.690Z,2.35
2022-08-05T09:25:13.819Z,2.78
2022-08-05T09:30:25.690Z,2.72
2022-08-05T09:35:27.679Z,2.70
2022-08-05T09:40:52.040Z,2.40
2022-08-05T09:46:07.541Z,2.53
2022-08-05T09:51:15.159Z,2.95
2022-08-05T09:56:34.086Z,2.47
2022-08-05T10:01:39.723Z,2.58
2022-08-05T10:06:59.009Z,2.05
2022-08-05T10:12:30.833Z,2.00
2022-08-05T10:17:37.601Z,2.10
2022-08-05T10:22:50.893Z,2.03
2022-08-05T10:28:13.878Z,2.20
2022-08-05T10:33:15.437Z,2.03
2022-08-05T10:38:25.044Z,2.07
2022-08-05T10:43:41.377Z,1.77
2022-08-05T10:48:58.107Z,2.03
2022-08-05T10:54:23.172Z,2.13
2022-08-05T11:00:03.502Z,1.90
2022-08-05T11:04:55.292Z,1.70
2022-08-05T11:10:04.120Z,2.47
2022-08-05T11:15:21.493Z,2.17
2022-08-05T11:20:46.105Z,2.00
2022-08-05T11:26:10.276Z,2.05
2022-08-05T11:31:11.639Z,2.00
2022-08-05T11:36:42.877Z,1.65
2022-08-05T11:42:01.995Z,2.17
2022-08-05T11:47:14.114Z,2.22
2022-08-05T11:52:29.220Z,2.10
2022-08-05T11:58:08.515Z,2.20
2022-08-05T12:02:53.167Z,2.20
2022-08-05T12:08:08.133Z,2.00
2022-08-05T12:13:17.388Z,2.60
2022-08-05T12:18:38.912Z,1.92
2022-08-05T12:23:50.988Z,1.98
2022-08-05T12:28:52.556Z,2.20
2022-08-05T12:33:59.651Z,2.13
2022-08-05T12:39:06.856Z,2.38
2022-08-05T12:44:14.674Z,2.50
2022-08-05T12:50:03.165Z,3.13
2022-08-05T12:55:17.099Z,3.58
2022-08-05T13:02:01.594Z,3.85
2022-08-05T13:05:48.154Z,4.20
2022-08-05T13:10:51.428Z,4.80
2022-08-05T13:15:54.298Z,4.47
2022-08-05T13:20:55.645Z,3.78
2022-08-05T13:26:01.001Z,3.22
2022-08-05T13:31:03.384Z,3.10
2022-08-05T13:36:15.658Z,3.70
2022-08-05T13:41:17.053Z,3.33
2022-08-05T13:46:30.788Z,3.77
2022-08-05T13:51:46.239Z,3.55
2022-08-05T13:56:51.564Z,3.70
2022-08-05T14:02:00.085Z,4.45
2022-08-05T14:07:24.990Z,4.47
2022-08-05T14:12:32.749Z,4.93
2022-08-05T14:17:35.178Z,5.22
2022-08-05T14:27:38.227Z,5.93
2022-08-05T14:32:48.991Z,5.70
2022-08-05T14:37:54.979Z,5.63
2022-08-05T14:42:56.697Z,5.85
2022-08-05T14:48:05.440Z,6.63
2022-08-05T14:53:10.032Z,7.63
2022-08-05T14:58:14.051Z,7.13
2022-08-05T15:03:15.592Z,7.25
2022-08-05T15:08:58.500Z,7.90
2022-08-05T15:13:46.667Z,8.60
2022-08-05T15:18:52.509Z,9.55
2022-08-05T15:23:54.193Z,8.82
2022-08-05T15:28:55.538Z,7.47
2022-08-05T15:34:18.646Z,7.63
2022-08-05T15:40:58.218Z,6.70
2022-08-05T15:44:44.106Z,6.40
2022-08-05T15:49:56.052Z,5.80
2022-08-05T15:55:00.738Z,4.60
2022-08-05T16:00:07.306Z,3.13
2022-08-05T16:05:09.511Z,3.20
2022-08-05T16:10:11.654Z,2.53
2022-08-05T16:15:18.563Z,2.70
2022-08-05T16:20:20.222Z,2.40
2022-08-05T16:25:21.566Z,2.40
2022-08-05T16:30:34.419Z,1.67
2022-08-05T16:35:42.345Z,1.30
2022-08-05T16:40:47.766Z,1.48
2022-08-05T16:46:04.095Z,1.25
2022-08-05T16:51:11.167Z,0.73
2022-08-05T16:56:12.592Z,0.77
2022-08-05T17:01:14.145Z,0.93
2022-08-05T17:06:16.516Z,0.95
2022-08-05T17:11:18.117Z,0.90
2022-08-05T17:16:33.592Z,1.05
2022-08-05T17:21:39.431Z,1.02
2022-08-05T17:26:41.739Z,1.15
2022-08-05T17:31:58.570Z,0.50
2022-08-05T17:37:00.727Z,0.47
2022-08-05T17:42:19.170Z,0.63
2022-08-05T17:47:23.595Z,0.60
2022-08-05T17:52:25.597Z,0.40
2022-08-05T17:57:28.314Z,0.57
2022-08-05T18:02:29.636Z,0.57
2022-08-05T18:07:32.820Z,0.88
2022-08-05T18:12:42.397Z,0.88
2022-08-05T18:18:00.710Z,0.88
2022-08-05T18:23:11.425Z,0.60
2022-08-05T18:28:17.348Z,0.80
2022-08-05T18:33:22.519Z,0.70
2022-08-05T18:38:26.165Z,0.60
2022-08-05T18:43:27.941Z,0.68
2022-08-05T18:48:33.491Z,1.00
2022-08-05T18:53:34.833Z,0.38
2022-08-05T18:58:47.223Z,0.40
2022-08-05T19:03:55.718Z,0.40
2022-08-05T19:08:58.037Z,0.60
2022-08-05T19:14:00.912Z,0.50
2022-08-05T19:19:06.622Z,0.57
2022-08-05T19:24:12.940Z,1.15
2022-08-05T19:29:15.636Z,0.90
2022-08-05T19:34:20.674Z,0.60
2022-08-05T19:39:23.318Z,0.60
2022-08-05T19:44:29.594Z,0.75
2022-08-05T19:49:31.430Z,0.63
2022-08-05T19:54:34.750Z,0.80
2022-08-05T19:59:59.408Z,0.93
2022-08-05T20:05:00.058Z,0.82
2022-08-05T20:10:04.754Z,0.90
2022-08-05T20:15:07.040Z,0.90
2022-08-05T20:20:11.125Z,0.90
2022-08-05T20:25:12.593Z,0.80
2022-08-05T20:30:13.984Z,1.15
2022-08-05T20:35:19.754Z,0.65
2022-08-05T20:40:21.089Z,0.95
2022-08-05T20:45:22.798Z,0.77
2022-08-05T20:50:45.538Z,0.90
2022-08-05T20:56:07.341Z,0.52
2022-08-05T21:01:09.966Z,0.90
2022-08-05T21:06:27.712Z,0.90
2022-08-05T21:12:09.225Z,0.57
2022-08-05T21:16:51.330Z,0.70
2022-08-05T21:21:53.099Z,0.63
2022-08-05T21:26:58.695Z,0.80
2022-08-05T21:32:02.137Z,0.50
2022-08-05T21:37:06.517Z,1.17
2022-08-05T21:42:30.783Z,0.73
2022-08-05T21:47:57.111Z,0.70
2022-08-05T21:52:52.937Z,0.88
2022-08-05T22:02:59.619Z,1.10
2022-08-05T22:08:03.352Z,1.23
2022-08-05T22:14:06.168Z,0.90
2022-08-05T22:18:28.385Z,1.10
2022-08-05T22:24:03.201Z,0.80
2022-08-05T22:29:10.582Z,0.60
2022-08-05T22:34:25.453Z,1.23
2022-08-05T22:39:33.944Z,1.02
2022-08-05T22:44:35.629Z,0.90
2022-08-05T22:50:20.748Z,1.38
2022-08-05T22:54:58.379Z,1.00
2022-08-05T22:59:59.763Z,0.90
2022-08-05T23:05:02.011Z,0.90
2022-08-05T23:10:06.784Z,0.93
2022-08-05T23:15:09.596Z,1.02
2022-08-05T23:20:17.481Z,0.50
2022-08-05T23:25:51.905Z,0.70
2022-08-05T23:30:43.461Z,0.50
2022-08-05T23:35:45.377Z,0.50
2022-08-05T23:40:49.795Z,0.43
2022-08-05T23:45:52.054Z,0.35
2022-08-05T23:50:53.413Z,0.80
2022-08-05T23:55:54.773Z,0.90
